Madison, SD

5:28 AM CST on November 21, 2019 (GMT -0600)
Madison Municipal

Weather History for KMDS - September, 2019

Change the Weather History Date:

Tuesday, September 10, 2019

  Actual Average Record
Temperature  
Mean Temperature 64 °F -  
Max Temperature 75 °F 77 °F 86 °F (2012)
Min Temperature 53 °F 51 °F 46 °F (2014)
Degree Days  
Heating Degree Days 1    
Growing Degree Days 14 (Base 50)    
Moisture  
Dew Point 63 °F    
Average Humidity 92    
Maximum Humidity 100    
Minimum Humidity 65    
Precipitation  
Precipitation 4.40 in - - ()
Sea Level Pressure  
Sea Level Pressure 29.97 in    
Wind  
Wind Speed 7 mph ()    
Max Wind Speed 34 mph    
Max Gust Speed 44 mph    
Visibility 8.4 miles    
Events Fog , Rain , Thunderstorm    
Averages and records for this station are not official NWS values.
T = Trace of Precipitation, MM = Missing Value Source: Averaged Metar Reports

Daily Weather History Graph

Daily Weather History Graph

Search for Another Location

Airport or City:

Astronomy

Sep. 10, 2019 Rise Set
Actual Time 7:01 AM CDT 7:48 PM CDT
Civil Twilight 6:32 AM CDT 8:17 PM CDT
Nautical Twilight 5:57 AM CDT 8:52 PM CDT
Astronomical Twilight 5:21 AM CDT 9:28 PM CDT
Moon 6:33 PM CDT (9/10) 3:19 AM CDT (9/10)
Length of Visible Light 13h 45m
Length of Day
12h 46m
Waxing Gibbous, 89% of the Moon is Illuminated
Sep 10
Waxing Gibbous
Sep 13
Full
Sep 21
Last Quarter
Sep 28
New
Oct 5
First Quarter

Hourly Weather History & Observations

Time (CDT) Temp. Dew Point Humidity Pressure Visibility Wind Dir Wind Speed Gust Speed Precip Events Conditions
12:00 AM 68.0 °F 68.0 °F 100% 29.82 in 10.0 mi WSW 11.5 mph 16.1 mph N/A   Partly Cloudy
12:15 AM 68.0 °F 68.0 °F 100% 29.83 in 10.0 mi WSW 11.5 mph - N/A   Mostly Cloudy
12:35 AM 68.0 °F 68.0 °F 100% 29.83 in 10.0 mi WSW 8.1 mph - N/A   Overcast
12:40 AM 68.0 °F 68.0 °F 100% 29.83 in 10.0 mi West 6.9 mph - N/A   Mostly Cloudy
12:55 AM 68.0 °F 68.0 °F 100% 29.84 in 10.0 mi West 6.9 mph - N/A   Partly Cloudy
1:00 AM 66.2 °F 66.2 °F 100% 29.84 in 10.0 mi West 6.9 mph - N/A   Partly Cloudy
1:15 AM 66.2 °F 66.2 °F 100% 29.85 in 10.0 mi West 5.8 mph - N/A   Clear
1:35 AM 64.4 °F 64.4 °F 100% 29.86 in 10.0 mi WNW 4.6 mph - N/A   Clear
1:55 AM 64.4 °F 64.4 °F 100% 29.87 in 10.0 mi NW 5.8 mph - N/A   Clear
2:00 AM 64.4 °F 64.4 °F 100% 29.87 in 10.0 mi NNW 5.8 mph - N/A   Clear
2:15 AM 64.4 °F 64.4 °F 100% 29.87 in 10.0 mi NW 5.8 mph - N/A   Clear
2:35 AM 62.6 °F 62.6 °F 100% 29.88 in 10.0 mi NW 6.9 mph - N/A   Clear
3:15 AM 62.6 °F 62.6 °F 100% 29.88 in 10.0 mi NW 3.5 mph - N/A   Clear
3:35 AM 60.8 °F 60.8 °F 100% 29.89 in 10.0 mi Calm Calm - N/A   Clear
3:40 AM 60.8 °F 60.8 °F 100% 29.89 in 10.0 mi Calm Calm - N/A   Clear
3:55 AM 60.8 °F 60.8 °F 100% 29.89 in 10.0 mi Calm Calm - N/A   Clear
4:15 AM 59.0 °F 59.0 °F 100% 29.90 in 10.0 mi NW 3.5 mph - N/A   Clear
4:20 AM 59.0 °F 59.0 °F 100% 29.90 in 10.0 mi WNW 3.5 mph - N/A   Clear
4:35 AM 59.0 °F 59.0 °F 100% 29.91 in 10.0 mi Calm Calm - N/A   Clear
4:55 AM 57.2 °F 57.2 °F 100% 29.91 in 10.0 mi NW 3.5 mph - N/A   Clear
5:00 AM 57.2 °F 57.2 °F 100% 29.91 in 10.0 mi NW 3.5 mph - N/A   Clear
5:15 AM 59.0 °F 59.0 °F 100% 29.92 in 10.0 mi Calm Calm - N/A   Clear
5:35 AM 59.0 °F 59.0 °F 100% 29.92 in 5.0 mi Calm Calm - N/A   Clear
5:55 AM 55.4 °F 55.4 °F 100% 29.92 in 0.5 mi NW 5.8 mph - N/A Fog Fog
6:00 AM 53.6 °F 53.6 °F 100% 29.92 in 0.5 mi NW 6.9 mph - N/A Fog Fog
6:15 AM 55.4 °F 55.4 °F 100% 29.92 in 0.8 mi NW 5.8 mph - N/A   Mist
6:20 AM 55.4 °F 55.4 °F 100% 29.93 in 2.0 mi West 3.5 mph - N/A   Clear
6:35 AM 55.4 °F 55.4 °F 100% 29.94 in 6.0 mi SW 3.5 mph - N/A   Clear
6:40 AM 57.2 °F 57.2 °F 100% 29.94 in 6.0 mi Calm Calm - N/A   Clear
6:55 AM 57.2 °F 57.2 °F 100% 29.95 in 3.0 mi NW 6.9 mph - N/A   Clear
7:00 AM 55.4 °F 55.4 °F 100% 29.95 in 1.0 mi NW 8.1 mph - N/A   Clear
7:15 AM 55.4 °F 55.4 °F 100% 29.95 in 1.8 mi Calm Calm - N/A   Scattered Clouds
7:20 AM 55.4 °F 55.4 °F 100% 29.96 in 0.5 mi Calm Calm - N/A Fog Fog
7:35 AM 57.2 °F 57.2 °F 100% 29.97 in 0.2 mi Calm Calm - N/A Fog Fog
7:55 AM 57.2 °F 57.2 °F 100% 29.97 in 0.2 mi NW 5.8 mph - N/A Fog Fog
8:00 AM 57.2 °F 57.2 °F 100% 29.97 in 0.5 mi WNW 5.8 mph - N/A Fog Fog
8:15 AM 57.2 °F 57.2 °F 100% 29.97 in 1.2 mi WNW 5.8 mph - N/A   Scattered Clouds
8:20 AM 57.2 °F 57.2 °F 100% 29.97 in 1.0 mi WNW 4.6 mph - N/A   Mostly Cloudy
8:35 AM 57.2 °F 57.2 °F 100% 29.98 in 10.0 mi NW 6.9 mph - N/A   Partly Cloudy
8:40 AM 59.0 °F 59.0 °F 100% 29.97 in 10.0 mi WNW 6.9 mph - N/A   Partly Cloudy
8:55 AM 59.0 °F 59.0 °F 100% 29.98 in 10.0 mi NW 5.8 mph - N/A   Clear
9:00 AM 59.0 °F 59.0 °F 100% 29.98 in 10.0 mi NW 6.9 mph - N/A   Clear
9:15 AM 60.8 °F 60.8 °F 100% 29.98 in 10.0 mi NW 8.1 mph - N/A   Clear
9:20 AM 60.8 °F 60.8 °F 100% 29.98 in 10.0 mi NW 8.1 mph - N/A   Clear
9:35 AM 62.6 °F 62.6 °F 100% 29.99 in 10.0 mi NW 8.1 mph - N/A   Clear
9:55 AM 64.4 °F 64.4 °F 100% 29.99 in 10.0 mi NW 8.1 mph - N/A   Clear
10:00 AM 64.4 °F 64.4 °F 100% 30.00 in 10.0 mi NNW 6.9 mph - N/A   Clear
10:15 AM 66.2 °F 66.2 °F 100% 30.00 in 10.0 mi NNW 5.8 mph - N/A   Clear
10:35 AM 66.2 °F 66.2 °F 100% 30.01 in 10.0 mi North 6.9 mph - N/A   Clear
10:40 AM 66.2 °F 66.2 °F 100% 30.01 in 10.0 mi North 8.1 mph - N/A   Clear
10:55 AM 68.0 °F 64.4 °F 88% 30.02 in 10.0 mi North 8.1 mph - N/A   Clear
11:00 AM 68.0 °F 66.2 °F 94% 30.02 in 10.0 mi NNW 5.8 mph - N/A   Clear
11:15 AM 68.0 °F 66.2 °F 94% 30.02 in 10.0 mi NNW 4.6 mph - N/A   Clear
11:35 AM 69.8 °F 64.4 °F 83% 30.03 in 10.0 mi North 5.8 mph - N/A   Clear
11:40 AM 69.8 °F 62.6 °F 78% 30.03 in 10.0 mi NNE 4.6 mph - N/A   Clear
11:55 AM 69.8 °F 64.4 °F 83% 30.04 in 10.0 mi ENE 3.5 mph - N/A   Clear
12:15 PM 71.6 °F 64.4 °F 78% 30.03 in 10.0 mi Calm Calm - N/A   Clear
12:20 PM 71.6 °F 62.6 °F 73% 30.03 in 10.0 mi NE 3.5 mph - N/A   Clear
12:35 PM 71.6 °F 64.4 °F 78% 30.03 in 10.0 mi ENE 4.6 mph - N/A   Clear
12:40 PM 71.6 °F 64.4 °F 78% 30.03 in 10.0 mi East 4.6 mph - N/A   Clear
12:55 PM 73.4 °F 64.4 °F 73% 30.04 in 10.0 mi ENE 4.6 mph - N/A   Clear
1:00 PM 71.6 °F 62.6 °F 73% 30.04 in 10.0 mi NE 4.6 mph - N/A   Clear
1:15 PM 73.4 °F 62.6 °F 69% 30.03 in 10.0 mi North 5.8 mph - N/A   Clear
1:20 PM 73.4 °F 62.6 °F 69% 30.03 in 10.0 mi NNW 4.6 mph - N/A   Clear
1:35 PM 73.4 °F 64.4 °F 73% 30.03 in 10.0 mi ENE 5.8 mph - N/A   Clear
1:40 PM 73.4 °F 62.6 °F 69% 30.03 in 10.0 mi NE 3.5 mph - N/A   Clear
1:55 PM 73.4 °F 64.4 °F 73% 30.03 in 10.0 mi NE 9.2 mph - N/A   Clear
2:15 PM 73.4 °F 64.4 °F 73% 30.03 in 10.0 mi ENE 9.2 mph - N/A   Clear
2:35 PM 73.4 °F 66.2 °F 78% 30.02 in 10.0 mi ENE 6.9 mph - N/A   Clear
2:40 PM 73.4 °F 64.4 °F 73% 30.02 in 10.0 mi East 6.9 mph - N/A   Clear
2:55 PM 75.2 °F 64.4 °F 69% 30.02 in 10.0 mi ENE 6.9 mph - N/A   Clear
3:15 PM 75.2 °F 64.4 °F 69% 30.01 in 10.0 mi East 8.1 mph - N/A   Clear
3:35 PM 75.2 °F 62.6 °F 65% 30.01 in 10.0 mi NE 8.1 mph - N/A   Clear
3:55 PM 75.2 °F 62.6 °F 65% 30.01 in 10.0 mi ENE 8.1 mph - N/A   Clear
4:00 PM 75.2 °F 62.6 °F 65% 30.01 in 10.0 mi ENE 9.2 mph - N/A   Clear
4:15 PM 75.2 °F 64.4 °F 69% 30.00 in 10.0 mi ENE 8.1 mph - N/A   Clear
4:35 PM 75.2 °F 66.2 °F 73% 30.00 in 10.0 mi East 9.2 mph - N/A   Clear
4:55 PM 75.2 °F 66.2 °F 73% 29.99 in 10.0 mi East 9.2 mph - N/A   Clear
5:00 PM 75.2 °F 66.2 °F 73% 29.99 in 10.0 mi East 8.1 mph - N/A   Clear
5:15 PM 75.2 °F 66.2 °F 73% 29.99 in 10.0 mi East 9.2 mph - N/A   Clear
5:20 PM 75.2 °F 66.2 °F 73% 29.99 in 10.0 mi ENE 11.5 mph - N/A   Clear
5:35 PM 75.2 °F 66.2 °F 73% 29.99 in 10.0 mi East 11.5 mph - N/A   Clear
5:55 PM 73.4 °F 68.0 °F 83% 29.99 in 10.0 mi East 10.4 mph - N/A   Clear
6:00 PM 73.4 °F 68.0 °F 83% 29.99 in 10.0 mi East 9.2 mph - N/A   Clear
6:15 PM 71.6 °F 68.0 °F 88% 29.99 in 10.0 mi East 9.2 mph - N/A   Clear
6:20 PM 71.6 °F 68.0 °F 88% 29.98 in 10.0 mi East 8.1 mph - N/A   Clear
6:35 PM 69.8 °F 69.8 °F 100% 29.98 in 10.0 mi East 5.8 mph - N/A   Clear
6:40 PM 69.8 °F 69.8 °F 100% 29.99 in 10.0 mi ENE 6.9 mph - N/A   Clear
6:55 PM 68.0 °F 68.0 °F 100% 29.98 in 10.0 mi ESE 5.8 mph - N/A   Clear
7:15 PM 68.0 °F 68.0 °F 100% 29.99 in 10.0 mi East 5.8 mph - N/A   Clear
7:35 PM 68.0 °F 68.0 °F 100% 29.98 in 10.0 mi East 9.2 mph - N/A   Clear
7:40 PM 68.0 °F 68.0 °F 100% 29.98 in 10.0 mi East 10.4 mph - N/A   Clear
7:55 PM 68.0 °F 68.0 °F 100% 29.99 in 10.0 mi ENE 9.2 mph - N/A   Clear
8:15 PM 68.0 °F 68.0 °F 100% 29.96 in 10.0 mi ENE 13.8 mph - N/A   Clear
8:20 PM 68.0 °F 68.0 °F 100% 29.95 in 10.0 mi ENE 13.8 mph 18.4 mph N/A   Clear
8:35 PM 68.0 °F 68.0 °F 100% 29.98 in 10.0 mi ENE 13.8 mph 19.6 mph N/A   Partly Cloudy
8:55 PM 66.2 °F 66.2 °F 100% 29.97 in 10.0 mi ENE 17.3 mph 24.2 mph N/A   Partly Cloudy
9:15 PM 66.2 °F 66.2 °F 100% 29.98 in 10.0 mi ENE 15.0 mph 21.9 mph N/A   Mostly Cloudy
9:20 PM 66.2 °F 66.2 °F 100% 29.99 in 10.0 mi ENE 18.4 mph - N/A Thunderstorm Overcast
9:35 PM 66.2 °F 66.2 °F 100% 29.97 in 10.0 mi ENE 15.0 mph - N/A Thunderstorm Overcast
9:40 PM 66.2 °F 66.2 °F 100% 29.97 in 10.0 mi ENE 15.0 mph - N/A Thunderstorm Overcast
9:55 PM 66.2 °F 66.2 °F 100% 29.97 in 10.0 mi ENE 16.1 mph 21.9 mph N/A Thunderstorm Overcast
10:15 PM 64.4 °F 64.4 °F 100% 29.95 in 10.0 mi ENE 17.3 mph 24.2 mph 0.03 in Rain , Thunderstorm Light Rain
10:20 PM 64.4 °F 64.4 °F 100% 29.94 in 8.0 mi ENE 17.3 mph 24.2 mph 0.06 in Rain , Thunderstorm Heavy Thunderstorms and Rain
10:35 PM 64.4 °F 64.4 °F 100% 29.95 in 3.0 mi North 13.8 mph 19.6 mph 0.36 in Rain , Thunderstorm Heavy Thunderstorms and Rain
10:40 PM 64.4 °F 64.4 °F 100% 29.95 in 3.0 mi North 16.1 mph 19.6 mph 0.52 in Rain , Thunderstorm Heavy Thunderstorms and Rain
10:55 PM 64.4 °F 64.4 °F 100% 29.96 in 2.0 mi NW 33.4 mph 43.7 mph 1.10 in Rain , Thunderstorm Heavy Rain
11:15 PM 62.6 °F 62.6 °F 100% 30.02 in 1.5 mi NW 26.5 mph 38.0 mph 0.72 in Rain , Thunderstorm Heavy Thunderstorms and Rain
11:20 PM 60.8 °F 60.8 °F 100% 30.04 in 1.8 mi WNW 34.5 mph 43.7 mph 0.88 in Rain , Thunderstorm Heavy Thunderstorms and Rain
11:35 PM 57.2 °F 57.2 °F 100% 30.04 in - NNW 26.5 mph 41.4 mph 2.13 in Rain , Thunderstorm Heavy Thunderstorms and Rain
11:55 PM 57.2 °F 57.2 °F 100% 30.08 in 1.0 mi North 12.7 mph - 3.30 in Rain , Thunderstorm Heavy Rain